Time;durP1;ratioP1;P1;durP2;ratioP2;P2;SDS_P1;SDS_P2;PMS_P1;PMS_P2;Temp;Humidity;BMP_temperature;BMP_pressure;BME280_temperature;BME280_humidity;BME280_pressure;Samples;Min_cycle;Max_cycle;Signal;HPM_P1;HPM_P2
2023/12/01 00:00:42;;;;;;;37.72;29.30;;;0.90;99.90;;;;;;4899000;29;20592;-56
2023/12/01 00:03:08;;;;;;;41.33;30.77;;;0.90;99.90;;;;;;4890960;29;20199;-56
2023/12/01 00:05:33;;;;;;;39.85;29.27;;;0.90;97.70;;;;;;4897829;29;20187;-59
2023/12/01 00:07:59;;;;;;;40.70;30.93;;;0.80;96.50;;;;;;4903587;29;20243;-56
2023/12/01 00:10:24;;;;;;;40.70;31.30;;;0.80;99.00;;;;;;4900777;29;20647;-58
2023/12/01 00:12:50;;;;;;;41.20;31.20;;;0.80;99.30;;;;;;4901993;29;20187;-59
2023/12/01 00:15:16;;;;;;;37.70;30.10;;;0.70;99.90;;;;;;4906029;29;20187;-58
2023/12/01 00:17:41;;;;;;;38.47;30.10;;;0.70;99.90;;;;;;4906049;29;20214;-59
2023/12/01 00:20:08;;;;;;;39.13;30.67;;;0.70;99.90;;;;;;4895694;29;20187;-60
2023/12/01 00:22:33;;;;;;;39.78;29.90;;;0.70;99.90;;;;;;4911109;29;20242;-58
2023/12/01 00:24:59;;;;;;;40.33;29.80;;;0.70;99.90;;;;;;4907550;29;20258;-58
2023/12/01 00:27:24;;;;;;;38.33;31.50;;;0.70;99.90;;;;;;4901706;29;20206;-57
2023/12/01 00:29:50;;;;;;;43.50;31.60;;;0.70;99.90;;;;;;4909910;29;20638;-57
2023/12/01 00:32:15;;;;;;;35.40;29.63;;;0.60;99.90;;;;;;4902874;29;20198;-59
2023/12/01 00:34:41;;;;;;;39.87;29.60;;;0.60;99.90;;;;;;4915015;29;20186;-57
2023/12/01 00:37:22;;;;;;;42.13;31.43;;;0.60;99.90;;;;;;4902804;29;20645;-59
2023/12/01 00:39:48;;;;;;;32.80;27.38;;;0.50;99.90;;;;;;4898090;29;20191;-58
2023/12/01 00:42:13;;;;;;;37.70;29.10;;;0.60;99.90;;;;;;4899451;29;20270;-55
2023/12/01 00:44:39;;;;;;;34.70;29.30;;;0.60;99.90;;;;;;4898144;29;20214;-58
2023/12/01 00:47:05;;;;;;;35.00;28.23;;;0.60;99.90;;;;;;4897961;29;20198;-58
2023/12/01 00:49:31;;;;;;;34.63;28.30;;;0.60;99.90;;;;;;4889816;29;20189;-58
2023/12/01 00:51:57;;;;;;;46.47;30.30;;;0.50;99.90;;;;;;4895793;29;20183;-50
2023/12/01 00:54:23;;;;;;;37.83;30.37;;;0.50;99.90;;;;;;4899628;29;20208;-58
2023/12/01 00:56:48;;;;;;;38.08;28.00;;;0.40;99.90;;;;;;4898093;29;20479;-58
2023/12/01 00:59:14;;;;;;;43.07;29.10;;;0.50;99.90;;;;;;4908097;29;20179;-56
2023/12/01 01:01:40;;;;;;;38.27;29.00;;;0.50;99.90;;;;;;4893784;29;20264;-55
2023/12/01 01:04:05;;;;;;;36.00;27.20;;;0.50;99.90;;;;;;4902235;29;20190;-58
2023/12/01 01:06:31;;;;;;;44.50;30.20;;;0.40;99.90;;;;;;4897234;29;20655;-57
2023/12/01 01:08:57;;;;;;;38.60;28.47;;;0.50;99.90;;;;;;4903341;29;20207;-58
2023/12/01 01:11:22;;;;;;;41.17;30.30;;;0.40;99.90;;;;;;4887535;29;20196;-55
2023/12/01 01:13:48;;;;;;;38.00;29.53;;;0.40;99.90;;;;;;4909427;29;20189;-58
2023/12/01 01:16:14;;;;;;;35.50;27.57;;;0.40;99.90;;;;;;4881075;29;20188;-54
2023/12/01 01:18:39;;;;;;;39.63;29.77;;;0.40;99.90;;;;;;4883230;29;20203;-60
2023/12/01 01:21:05;;;;;;;37.20;31.07;;;0.40;99.90;;;;;;4895189;29;20941;-50
2023/12/01 01:23:31;;;;;;;33.00;28.53;;;0.50;99.90;;;;;;4888392;29;20259;-56
2023/12/01 01:25:56;;;;;;;38.37;28.70;;;0.40;99.90;;;;;;4905042;29;20261;-56
2023/12/01 01:28:22;;;;;;;39.90;29.07;;;0.40;99.90;;;;;;4900685;29;20269;-55
2023/12/01 01:30:49;;;;;;;35.83;26.83;;;0.40;99.90;;;;;;4913954;29;20190;-57
2023/12/01 01:33:14;;;;;;;43.20;29.45;;;0.40;99.90;;;;;;4910072;29;20221;-44
2023/12/01 01:35:40;;;;;;;36.43;28.77;;;0.40;99.90;;;;;;4914987;29;20654;-39
2023/12/01 01:38:06;;;;;;;38.27;28.63;;;0.30;99.90;;;;;;4903453;29;20179;-39
2023/12/01 01:40:31;;;;;;;35.07;28.50;;;0.30;99.90;;;;;;4904359;29;20215;-40
2023/12/01 01:42:57;;;;;;;36.77;29.10;;;0.20;99.90;;;;;;4902131;29;20175;-39
2023/12/01 01:45:22;;;;;;;41.33;30.63;;;0.20;99.90;;;;;;4906686;29;20183;-38
2023/12/01 01:47:49;;;;;;;37.30;28.27;;;0.20;99.90;;;;;;4903928;29;20214;-38
2023/12/01 01:50:15;;;;;;;35.72;29.25;;;0.20;99.90;;;;;;4896837;29;20187;-38
2023/12/01 01:52:42;;;;;;;43.33;29.73;;;0.20;99.90;;;;;;4900568;29;20192;-40
2023/12/01 01:55:08;;;;;;;39.65;29.00;;;0.20;99.90;;;;;;4909912;29;20572;-39
2023/12/01 01:57:40;;;;;;;36.30;28.25;;;0.30;99.90;;;;;;4903398;29;20310;-39
2023/12/01 02:00:06;;;;;;;37.25;28.15;;;0.30;99.90;;;;;;4885030;29;20282;-39
2023/12/01 02:02:35;;;;;;;39.00;29.00;;;0.30;99.90;;;;;;4899995;29;20308;-39
2023/12/01 02:05:01;;;;;;;36.65;28.63;;;0.30;99.90;;;;;;4884623;29;20770;-39
2023/12/01 02:07:27;;;;;;;37.55;29.50;;;0.20;99.90;;;;;;4893654;29;20179;-39
2023/12/01 02:09:56;;;;;;;35.95;28.17;;;0.20;99.90;;;;;;4898118;29;20218;-40
2023/12/01 02:12:22;;;;;;;36.35;28.55;;;0.20;98.30;;;;;;4895909;29;20194;-38
2023/12/01 02:14:47;;;;;;;34.33;28.50;;;0.20;96.80;;;;;;4900257;29;20191;-38
2023/12/01 02:17:13;;;;;;;32.87;27.83;;;0.30;99.90;;;;;;4897603;29;20194;-40
2023/12/01 02:19:39;;;;;;;41.20;29.77;;;0.30;99.10;;;;;;4899785;29;20222;-39
2023/12/01 02:22:05;;;;;;;35.40;27.57;;;0.30;95.70;;;;;;4900710;29;20239;-40
2023/12/01 02:24:31;;;;;;;37.58;28.38;;;0.20;92.10;;;;;;4898070;29;20209;-41
2023/12/01 02:26:56;;;;;;;37.47;28.60;;;0.20;96.80;;;;;;4912984;29;20195;-39
2023/12/01 02:29:22;;;;;;;39.87;30.03;;;0.20;97.90;;;;;;4894301;29;20987;-39
2023/12/01 02:31:47;;;;;;;34.60;29.77;;;0.20;98.90;;;;;;4907031;29;20182;-39
2023/12/01 02:34:13;;;;;;;38.00;29.47;;;0.20;98.10;;;;;;4896744;29;20602;-39
2023/12/01 02:36:39;;;;;;;35.90;28.58;;;0.20;99.50;;;;;;4906653;29;20198;-40
2023/12/01 02:39:07;;;;;;;37.20;28.20;;;0.30;98.10;;;;;;4907693;29;20195;-39
2023/12/01 02:41:33;;;;;;;38.97;30.13;;;0.20;92.90;;;;;;4912064;29;20695;-40
2023/12/01 02:43:59;;;;;;;35.00;29.03;;;0.20;95.50;;;;;;4908395;29;20183;-38
2023/12/01 02:46:24;;;;;;;36.23;28.50;;;0.10;91.00;;;;;;4894066;29;20547;-39
2023/12/01 02:48:50;;;;;;;38.33;27.83;;;0.10;91.80;;;;;;4904636;29;20302;-39
2023/12/01 02:51:16;;;;;;;36.87;29.30;;;0.00;93.50;;;;;;4910250;29;20187;-39
2023/12/01 02:53:43;;;;;;;37.30;29.20;;;-0.10;96.20;;;;;;4885282;29;20286;-38
2023/12/01 02:56:10;;;;;;;37.28;27.33;;;-0.10;99.90;;;;;;4894801;29;20681;-40
2023/12/01 02:58:35;;;;;;;36.50;28.03;;;-0.20;99.90;;;;;;4894594;29;20182;-39
2023/12/01 03:01:03;;;;;;;37.70;27.70;;;-0.20;99.90;;;;;;4892928;29;20505;-39
2023/12/01 03:03:28;;;;;;;41.15;28.95;;;-0.10;99.90;;;;;;4893929;29;20646;-39
2023/12/01 03:05:54;;;;;;;37.77;28.70;;;-0.10;99.90;;;;;;4892588;29;20200;-39
2023/12/01 03:08:19;;;;;;;33.93;27.43;;;-0.10;99.90;;;;;;4893258;29;20230;-39
2023/12/01 03:10:46;;;;;;;35.80;28.60;;;-0.10;99.90;;;;;;4893091;29;20261;-40
2023/12/01 03:13:11;;;;;;;41.40;27.60;;;0.00;99.90;;;;;;4893233;29;20697;-39
2023/12/01 03:15:37;;;;;;;34.37;27.90;;;0.00;99.90;;;;;;4877623;29;20202;-39
2023/12/01 03:18:03;;;;;;;32.57;27.37;;;0.00;99.90;;;;;;4893173;29;20571;-39
2023/12/01 03:20:29;;;;;;;37.42;28.30;;;0.00;99.90;;;;;;4892303;29;20629;-38
2023/12/01 03:22:55;;;;;;;38.43;28.03;;;0.00;99.10;;;;;;4893006;29;20317;-39
2023/12/01 03:25:20;;;;;;;33.23;27.07;;;0.00;99.90;;;;;;4899473;29;20253;-39
2023/12/01 03:27:48;;;;;;;36.47;28.60;;;0.00;99.90;;;;;;4908411;29;20190;-39
2023/12/01 03:30:18;;;;;;;38.30;27.27;;;-0.10;98.10;;;;;;4902608;29;20270;-39
2023/12/01 03:32:49;;;;;;;39.75;27.10;;;-0.20;97.90;;;;;;4911092;29;20186;-39
2023/12/01 03:35:17;;;;;;;31.85;27.88;;;-0.20;99.90;;;;;;4897799;29;20246;-40
2023/12/01 03:37:44;;;;;;;37.65;28.75;;;-0.20;99.90;;;;;;4903981;29;20198;-40
2023/12/01 03:40:13;;;;;;;37.88;25.80;;;-0.20;99.90;;;;;;4902388;29;20547;-39
2023/12/01 03:42:44;;;;;;;35.80;27.38;;;-0.20;99.90;;;;;;4898236;29;20213;-39
2023/12/01 03:45:13;;;;;;;31.17;26.67;;;-0.20;99.90;;;;;;4903035;29;20242;-39
2023/12/01 03:47:40;;;;;;;34.58;26.98;;;-0.20;99.90;;;;;;4910025;29;20186;-40
2023/12/01 03:50:11;;;;;;;36.33;24.92;;;-0.20;99.90;;;;;;4905394;29;20784;-39
2023/12/01 03:52:41;;;;;;;33.45;27.52;;;-0.20;99.90;;;;;;4901524;29;20889;-40
2023/12/01 03:55:07;;;;;;;34.63;25.58;;;-0.10;99.90;;;;;;4888103;29;20337;-39
2023/12/01 03:57:32;;;;;;;33.30;26.13;;;-0.20;99.90;;;;;;4891961;29;20226;-39
2023/12/01 03:59:58;;;;;;;34.67;26.87;;;-0.20;99.90;;;;;;4891224;29;20188;-39
2023/12/01 04:02:23;;;;;;;33.90;26.07;;;-0.10;99.90;;;;;;4874512;29;20242;-42
2023/12/01 04:04:50;;;;;;;33.63;25.03;;;-0.10;99.90;;;;;;4885095;29;20196;-40
2023/12/01 04:07:15;;;;;;;28.02;24.75;;;-0.10;99.10;;;;;;4894392;29;20187;-39
2023/12/01 04:09:41;;;;;;;38.53;27.20;;;0.00;98.40;;;;;;4894427;29;20218;-39
2023/12/01 04:12:07;;;;;;;30.07;25.30;;;0.00;98.20;;;;;;4891902;29;20192;-39
2023/12/01 04:14:33;;;;;;;42.50;28.30;;;0.00;93.20;;;;;;4882888;29;20439;-39
2023/12/01 04:17:08;;;;;;;35.23;26.87;;;0.00;93.10;;;;;;4903155;29;20454;-40
2023/12/01 04:19:37;;;;;;;37.08;26.15;;;0.00;90.30;;;;;;4893760;29;20946;-39
2023/12/01 04:22:04;;;;;;;31.07;24.80;;;0.00;89.30;;;;;;4857764;29;1069455;-40
2023/12/01 04:24:33;;;;;;;30.50;26.05;;;0.10;92.20;;;;;;4890600;29;20192;-40
2023/12/01 04:27:00;;;;;;;36.70;27.42;;;0.10;89.40;;;;;;4894317;29;20657;-40
2023/12/01 04:29:28;;;;;;;34.88;26.48;;;0.00;72.00;;;;;;4898326;29;20193;-39
2023/12/01 04:31:53;;;;;;;36.60;27.15;;;0.10;73.10;;;;;;4899317;29;20210;-38
2023/12/01 04:34:20;;;;;;;34.67;26.27;;;0.10;78.00;;;;;;4913127;29;20662;-42
2023/12/01 04:36:47;;;;;;;35.42;27.40;;;0.10;75.10;;;;;;4887583;29;20191;-39
2023/12/01 04:39:14;;;;;;;33.75;26.98;;;0.10;61.70;;;;;;4895700;29;20305;-39
2023/12/01 04:41:39;;;;;;;34.72;26.00;;;0.10;73.10;;;;;;4900096;29;20214;-39
2023/12/01 04:44:05;;;;;;;35.33;26.43;;;0.10;71.50;;;;;;4913735;29;20902;-39
2023/12/01 04:46:31;;;;;;;35.23;27.53;;;0.20;80.70;;;;;;4893020;29;20244;-39
2023/12/01 04:48:56;;;;;;;34.37;26.90;;;0.20;84.00;;;;;;4912736;29;20195;-38
2023/12/01 04:51:22;;;;;;;32.47;25.63;;;0.20;78.50;;;;;;4908087;29;20277;-40
2023/12/01 04:53:48;;;;;;;33.47;25.40;;;0.20;76.50;;;;;;4897967;29;21075;-40
2023/12/01 04:56:14;;;;;;;32.55;25.80;;;0.20;79.00;;;;;;4891876;29;20194;-40
2023/12/01 04:58:39;;;;;;;34.07;26.30;;;0.20;73.30;;;;;;4912308;29;20676;-39
2023/12/01 05:01:05;;;;;;;33.30;25.70;;;0.20;64.70;;;;;;4902870;29;20467;-38
2023/12/01 05:03:31;;;;;;;33.43;25.77;;;0.10;67.40;;;;;;4881982;29;20226;-39
2023/12/01 05:05:58;;;;;;;32.97;25.30;;;0.10;62.00;;;;;;4898000;29;20498;-39
2023/12/01 05:08:27;;;;;;;31.77;24.60;;;0.10;73.40;;;;;;4888253;29;20199;-39
2023/12/01 05:10:56;;;;;;;34.10;26.10;;;0.10;76.60;;;;;;4909866;29;20205;-38
2023/12/01 05:13:21;;;;;;;34.05;25.42;;;0.10;79.70;;;;;;4900798;29;20813;-39
2023/12/01 05:15:47;;;;;;;37.80;28.63;;;0.20;85.60;;;;;;4902953;29;20269;-41
2023/12/01 05:18:12;;;;;;;35.27;25.80;;;0.20;79.40;;;;;;4890694;29;20460;-38
2023/12/01 05:20:39;;;;;;;35.70;27.10;;;0.20;70.40;;;;;;4894519;29;20187;-39
2023/12/01 05:23:09;;;;;;;30.10;25.40;;;0.20;57.00;;;;;;4893070;29;20322;-38
2023/12/01 05:25:37;;;;;;;32.65;24.55;;;0.20;58.00;;;;;;4905077;29;20190;-38
2023/12/01 05:28:05;;;;;;;29.92;25.85;;;0.10;58.20;;;;;;4905762;29;20183;-39
2023/12/01 05:30:33;;;;;;;31.58;24.80;;;0.20;68.20;;;;;;4903166;29;20193;-38
2023/12/01 05:32:59;;;;;;;36.65;27.85;;;0.20;75.10;;;;;;4889158;29;20183;-39
2023/12/01 05:35:26;;;;;;;32.47;24.95;;;0.20;77.20;;;;;;4871380;29;20207;-39
2023/12/01 05:37:54;;;;;;;31.67;24.45;;;0.20;60.30;;;;;;4911478;29;20202;-38
2023/12/01 05:40:23;;;;;;;33.70;24.63;;;0.20;64.70;;;;;;4901679;29;20651;-39
2023/12/01 05:42:52;;;;;;;34.50;25.75;;;0.30;70.70;;;;;;4911865;29;20689;-38
2023/12/01 05:45:20;;;;;;;32.30;25.38;;;0.30;68.40;;;;;;4905389;29;20194;-39
2023/12/01 05:47:47;;;;;;;31.50;24.55;;;0.30;60.50;;;;;;4892866;29;20201;-39
2023/12/01 05:50:14;;;;;;;31.45;22.75;;;0.40;63.80;;;;;;4902754;29;20194;-38
2023/12/01 05:52:41;;;;;;;36.47;24.40;;;0.30;60.00;;;;;;4903757;29;20668;-39
2023/12/01 05:55:14;;;;;;;36.05;25.00;;;0.30;53.70;;;;;;4909104;29;20203;-39
2023/12/01 05:57:44;;;;;;;34.80;25.05;;;0.30;57.50;;;;;;4901179;29;20202;-39
2023/12/01 06:00:15;;;;;;;36.55;25.08;;;0.30;58.10;;;;;;4903987;29;20664;-39
2023/12/01 06:02:43;;;;;;;32.08;24.40;;;0.30;54.90;;;;;;4904906;29;20289;-38
2023/12/01 06:05:11;;;;;;;36.25;25.80;;;0.30;53.40;;;;;;4914457;29;20278;-38
2023/12/01 06:07:37;;;;;;;32.45;24.63;;;0.40;54.70;;;;;;4901495;29;20193;-39
2023/12/01 06:10:05;;;;;;;34.90;24.88;;;0.40;53.90;;;;;;4914329;29;20837;-39
2023/12/01 06:12:34;;;;;;;31.20;24.85;;;0.40;53.30;;;;;;4900043;29;20656;-38
2023/12/01 06:15:00;;;;;;;34.65;24.65;;;0.40;48.40;;;;;;4911707;29;20250;-39
2023/12/01 06:17:25;;;;;;;37.80;24.23;;;0.30;44.90;;;;;;4898940;29;20600;-40
2023/12/01 06:19:52;;;;;;;33.30;23.60;;;0.40;44.30;;;;;;4882596;29;20195;-38
2023/12/01 06:22:17;;;;;;;36.35;26.20;;;0.30;47.10;;;;;;4883246;29;20245;-39
2023/12/01 06:24:43;;;;;;;31.90;24.70;;;0.30;47.30;;;;;;4906881;29;20203;-39
2023/12/01 06:27:11;;;;;;;32.90;24.47;;;0.30;44.10;;;;;;4893380;29;20196;-39
2023/12/01 06:29:37;;;;;;;32.35;24.95;;;0.20;48.30;;;;;;4870620;29;20192;-38
2023/12/01 06:32:03;;;;;;;32.33;25.23;;;0.30;50.60;;;;;;4900145;29;20228;-39
2023/12/01 06:34:29;;;;;;;40.40;28.10;;;0.30;51.90;;;;;;4893596;29;20324;-39
2023/12/01 06:36:58;;;;;;;34.20;25.77;;;0.30;52.20;;;;;;4886379;29;20449;-40
2023/12/01 06:39:27;;;;;;;35.75;24.02;;;0.30;55.50;;;;;;4868199;29;20204;-38
2023/12/01 06:41:53;;;;;;;36.13;24.77;;;0.30;54.00;;;;;;4879461;29;20580;-39
2023/12/01 06:44:20;;;;;;;29.70;24.30;;;0.30;57.10;;;;;;4887024;29;20192;-39
2023/12/01 06:46:46;;;;;;;29.42;24.30;;;0.30;56.60;;;;;;4884413;29;20446;-59
2023/12/01 06:49:12;;;;;;;34.17;25.07;;;0.30;57.30;;;;;;4894053;29;20202;-60
2023/12/01 06:51:38;;;;;;;31.27;25.30;;;0.30;58.80;;;;;;4903567;29;20191;-51
2023/12/01 06:54:04;;;;;;;33.45;26.98;;;0.30;57.30;;;;;;4909511;29;20226;-58
2023/12/01 06:56:29;;;;;;;32.63;25.70;;;0.30;58.80;;;;;;4909330;29;20267;-59
2023/12/01 06:58:55;;;;;;;33.70;26.57;;;0.30;61.80;;;;;;4898260;29;20187;-58
2023/12/01 07:01:21;;;;;;;40.93;27.87;;;0.40;62.60;;;;;;4906670;29;20242;-59
2023/12/01 07:03:47;;;;;;;32.47;25.67;;;0.40;62.90;;;;;;4901265;29;20187;-60
2023/12/01 07:06:13;;;;;;;32.92;25.30;;;0.40;58.60;;;;;;4902878;29;20433;-59
2023/12/01 07:08:40;;;;;;;35.95;26.20;;;0.50;58.10;;;;;;4898754;29;20203;-58
2023/12/01 07:11:06;;;;;;;35.67;25.95;;;0.50;56.90;;;;;;4891548;29;20266;-58
2023/12/01 07:13:32;;;;;;;39.17;25.88;;;0.50;58.40;;;;;;4896601;29;20202;-59
2023/12/01 07:15:58;;;;;;;33.30;25.80;;;0.50;58.10;;;;;;4898038;29;21107;-59
2023/12/01 07:18:24;;;;;;;37.70;25.10;;;0.50;51.10;;;;;;4892851;29;20459;-59
2023/12/01 07:20:50;;;;;;;35.92;26.30;;;0.50;48.70;;;;;;4888922;29;20341;-57
2023/12/01 07:23:19;;;;;;;36.83;25.08;;;0.60;48.90;;;;;;4897665;29;20238;-39
2023/12/01 07:25:48;;;;;;;32.38;25.58;;;0.60;45.80;;;;;;4889303;29;20197;-40
2023/12/01 07:28:15;;;;;;;36.20;27.10;;;0.60;42.50;;;;;;4884398;29;20243;-39
2023/12/01 07:30:43;;;;;;;34.50;25.58;;;0.70;39.60;;;;;;4873942;29;20191;-39
2023/12/01 07:36:33;;;;;;;36.17;26.15;;;0.70;43.20;;;;;;4897535;29;20389;-39
2023/12/01 07:38:58;;;;;;;33.33;25.38;;;0.80;35.30;;;;;;4889852;29;20945;-38
2023/12/01 07:41:24;;;;;;;33.50;24.20;;;0.80;27.10;;;;;;4908543;29;20261;-39
2023/12/01 07:43:52;;;;;;;32.63;26.80;;;0.80;21.90;;;;;;4899745;29;20565;-39
2023/12/01 07:46:17;;;;;;;32.10;24.90;;;0.80;20.50;;;;;;4895045;29;20186;-38
2023/12/01 07:48:43;;;;;;;33.20;24.60;;;0.80;21.70;;;;;;4895362;29;20732;-39
2023/12/01 07:51:09;;;;;;;32.17;25.40;;;0.80;24.30;;;;;;4897252;29;20201;-42
2023/12/01 07:53:34;;;;;;;34.60;25.03;;;0.80;23.60;;;;;;4885928;29;20194;-39
2023/12/01 07:56:00;;;;;;;31.90;25.30;;;0.80;23.00;;;;;;4893114;29;21157;-40
2023/12/01 07:58:25;;;;;;;34.53;25.80;;;0.90;24.20;;;;;;4893641;29;20277;-40
2023/12/01 08:00:51;;;;;;;27.60;23.33;;;0.90;25.10;;;;;;4874491;29;20560;-40
2023/12/01 08:03:17;;;;;;;29.50;24.47;;;0.90;25.70;;;;;;4892742;29;20195;-39
2023/12/01 08:05:42;;;;;;;32.03;24.87;;;1.00;25.80;;;;;;4889577;29;20183;-40
2023/12/01 08:08:08;;;;;;;35.50;25.73;;;1.00;25.40;;;;;;4889079;29;20193;-39
2023/12/01 08:10:34;;;;;;;35.58;26.02;;;1.00;23.00;;;;;;4890600;29;20183;-40
2023/12/01 08:13:00;;;;;;;33.03;25.10;;;1.00;21.30;;;;;;4881394;29;20191;-39
2023/12/01 08:15:26;;;;;;;32.27;24.33;;;1.10;20.80;;;;;;4891937;29;20595;-40
2023/12/01 08:17:51;;;;;;;33.73;25.93;;;1.10;21.90;;;;;;4891162;29;20186;-40
2023/12/01 08:20:18;;;;;;;34.33;24.90;;;1.10;22.10;;;;;;4893314;29;20819;-40
2023/12/01 08:22:46;;;;;;;35.50;25.35;;;1.10;18.80;;;;;;4895634;29;20369;-40
2023/12/01 08:25:15;;;;;;;33.63;24.98;;;1.20;18.80;;;;;;4892928;29;20195;-40
2023/12/01 08:27:41;;;;;;;32.72;25.92;;;1.20;15.60;;;;;;5073036;23;20811;-52
2023/12/01 08:30:07;;;;;;;38.30;27.57;;;1.20;13.10;;;;;;4894971;29;20201;-54
2023/12/01 08:32:33;;;;;;;35.88;28.27;;;1.20;12.50;;;;;;4901476;29;20458;-53
2023/12/01 08:34:59;;;;;;;33.20;25.90;;;1.30;10.10;;;;;;4898156;29;20191;-39
2023/12/01 08:37:25;;;;;;;39.25;28.73;;;1.30;6.80;;;;;;4900505;29;20483;-39
2023/12/01 08:39:51;;;;;;;37.97;27.20;;;1.40;5.90;;;;;;4901552;29;20233;-40
2023/12/01 08:42:19;;;;;;;36.63;27.80;;;1.40;2.60;;;;;;4909922;29;20208;-40
2023/12/01 08:44:45;;;;;;;40.83;28.27;;;1.50;1.00;;;;;;4906030;29;21307;-40
2023/12/01 08:47:13;;;;;;;36.77;26.20;;;1.50;1.00;;;;;;4899782;29;20179;-40
2023/12/01 08:49:40;;;;;;;36.05;28.77;;;1.50;1.00;;;;;;4902143;29;20428;-39
2023/12/01 08:52:07;;;;;;;36.38;28.80;;;1.50;1.00;;;;;;4896846;29;20258;-40
2023/12/01 08:54:34;;;;;;;38.60;26.73;;;1.60;1.00;;;;;;4898696;29;20340;-39
2023/12/01 08:56:59;;;;;;;38.42;28.73;;;1.60;1.00;;;;;;4896183;29;20195;-40
2023/12/01 08:59:25;;;;;;;37.47;27.70;;;1.70;1.00;;;;;;4879109;29;20278;-40
2023/12/01 09:01:50;;;;;;;34.20;26.87;;;1.60;1.00;;;;;;4895529;29;20287;-39
2023/12/01 09:04:16;;;;;;;37.80;27.43;;;1.70;1.00;;;;;;4903247;29;20621;-40
2023/12/01 09:06:42;;;;;;;37.23;27.87;;;1.70;1.00;;;;;;4883116;29;20196;-40
2023/12/01 09:09:07;;;;;;;37.50;28.57;;;1.80;1.00;;;;;;4901347;29;20597;-40
2023/12/01 09:11:33;;;;;;;36.57;26.83;;;1.80;1.00;;;;;;4900048;29;20640;-40
2023/12/01 09:13:59;;;;;;;37.60;27.30;;;1.80;1.00;;;;;;4879077;29;20203;-39
2023/12/01 09:16:24;;;;;;;36.17;27.87;;;1.80;1.00;;;;;;4895568;29;20620;-40
2023/12/01 09:18:50;;;;;;;32.40;25.50;;;1.90;1.00;;;;;;4897913;29;20484;-40
2023/12/01 09:21:17;;;;;;;34.35;27.95;;;1.90;1.00;;;;;;4900012;29;20214;-40
2023/12/01 09:23:44;;;;;;;35.05;25.92;;;1.90;1.00;;;;;;4895802;29;20226;-40
2023/12/01 09:26:18;;;;;;;41.00;27.35;;;1.90;1.00;;;;;;4900195;29;20429;-40
2023/12/01 09:28:44;;;;;;;37.80;27.52;;;1.80;1.00;;;;;;4886280;29;20199;-40
2023/12/01 09:31:12;;;;;;;35.50;28.10;;;1.80;1.00;;;;;;4898597;29;20202;-40
2023/12/01 09:33:38;;;;;;;41.80;27.77;;;1.80;1.00;;;;;;4895464;29;20429;-39
2023/12/01 09:36:04;;;;;;;40.47;30.00;;;1.90;1.00;;;;;;4895630;29;20705;-39
2023/12/01 09:38:31;;;;;;;42.92;31.13;;;1.90;1.00;;;;;;4895347;29;20436;-40
2023/12/01 09:40:57;;;;;;;43.20;30.17;;;1.90;1.00;;;;;;4903283;29;20224;-40
2023/12/01 09:43:23;;;;;;;36.72;28.27;;;1.90;1.00;;;;;;4895454;29;20660;-39
2023/12/01 09:45:50;;;;;;;35.83;27.50;;;1.90;1.00;;;;;;4902159;29;20215;-40
2023/12/01 09:48:19;;;;;;;39.55;28.30;;;2.00;1.00;;;;;;4895349;29;20452;-40
2023/12/01 09:50:48;;;;;;;37.00;26.67;;;1.90;1.00;;;;;;4900343;29;20230;-39
2023/12/01 09:53:16;;;;;;;38.47;29.45;;;1.90;1.00;;;;;;4895224;29;20183;-40
2023/12/01 09:55:42;;;;;;;38.10;28.38;;;1.90;1.00;;;;;;4898486;29;20362;-41
2023/12/01 09:58:09;;;;;;;35.35;26.65;;;1.90;1.00;;;;;;4895170;29;20196;-40
2023/12/01 10:00:35;;;;;;;37.80;28.35;;;2.00;1.00;;;;;;4871634;29;20202;-39
2023/12/01 10:03:01;;;;;;;38.60;28.17;;;2.00;1.00;;;;;;4881408;29;20175;-53
2023/12/01 10:05:29;;;;;;;33.50;27.20;;;2.00;1.00;;;;;;4873560;29;20279;-51
2023/12/01 10:07:55;;;;;;;37.67;27.75;;;2.00;1.00;;;;;;4889410;29;20335;-52
2023/12/01 10:10:26;;;;;;;34.25;27.17;;;2.00;1.00;;;;;;4888559;29;20185;-53
2023/12/01 10:13:03;;;;;;;37.90;27.50;;;2.00;1.00;;;;;;4878516;29;20275;-55
2023/12/01 10:15:30;;;;;;;30.15;26.65;;;1.90;1.00;;;;;;4890843;29;20690;-55
2023/12/01 10:18:11;;;;;;;37.90;27.60;;;1.90;1.00;;;;;;4886720;29;20195;-55
2023/12/01 10:20:39;;;;;;;33.30;25.95;;;1.90;1.00;;;;;;4883974;29;20251;-55
2023/12/01 10:23:18;;;;;;;36.25;27.60;;;1.90;1.00;;;;;;4882600;29;20207;-55
2023/12/01 10:25:51;;;;;;;41.30;29.00;;;1.90;1.00;;;;;;4883194;29;20673;-55
2023/12/01 10:28:18;;;;;;;32.42;27.42;;;1.90;1.00;;;;;;4890848;29;20238;-54
2023/12/01 10:30:58;;;;;;;33.75;26.60;;;1.90;1.00;;;;;;4875241;29;20258;-54
2023/12/01 10:33:31;;;;;;;33.33;26.88;;;1.90;1.00;;;;;;4890098;29;20538;-39
2023/12/01 10:36:08;;;;;;;34.75;27.52;;;1.90;1.00;;;;;;4892432;29;20204;-40
2023/12/01 10:38:35;;;;;;;38.95;27.25;;;2.00;1.00;;;;;;4888814;29;20279;-39
2023/12/01 10:41:03;;;;;;;36.60;26.65;;;2.00;1.00;;;;;;4893053;29;20215;-39
2023/12/01 10:43:29;;;;;;;34.72;26.92;;;2.10;1.00;;;;;;4891131;29;20201;-39
2023/12/01 10:46:04;;;;;;;37.58;28.63;;;2.10;1.00;;;;;;4892967;29;20184;-40
2023/12/01 10:48:31;;;;;;;37.97;26.85;;;2.10;1.00;;;;;;4891993;29;20442;-40
2023/12/01 10:50:57;;;;;;;35.05;27.23;;;2.20;1.00;;;;;;4874740;29;20199;-50
2023/12/01 10:53:26;;;;;;;37.13;29.00;;;2.20;1.00;;;;;;4891342;29;20180;-55
2023/12/01 10:55:54;;;;;;;39.25;27.23;;;2.30;1.00;;;;;;4892659;29;20192;-53
2023/12/01 10:58:21;;;;;;;39.40;28.35;;;2.20;1.00;;;;;;4891625;29;20243;-56
2023/12/01 11:00:52;;;;;;;41.78;28.73;;;2.20;1.00;;;;;;4891948;29;20203;-40
2023/12/01 11:03:22;;;;;;;43.00;30.13;;;2.20;1.00;;;;;;4891809;29;20177;-40
2023/12/01 11:06:06;;;;;;;39.42;31.27;;;2.20;1.00;;;;;;4892743;29;20180;-41
2023/12/01 11:08:54;;;;;;;38.05;28.55;;;2.30;1.00;;;;;;4892114;29;20656;-40
2023/12/01 11:11:24;;;;;;;41.75;29.27;;;2.30;1.00;;;;;;4892797;29;20526;-40
2023/12/01 11:14:10;;;;;;;40.78;29.55;;;2.40;1.00;;;;;;4890660;29;20190;-40
2023/12/01 11:16:36;;;;;;;36.45;27.38;;;2.40;1.00;;;;;;4893404;29;20334;-40
2023/12/01 11:19:02;;;;;;;37.00;27.33;;;2.30;1.00;;;;;;4891676;29;20311;-41
2023/12/01 11:21:29;;;;;;;37.73;26.37;;;2.30;1.00;;;;;;4891433;29;20458;-38
2023/12/01 11:23:54;;;;;;;35.40;27.70;;;2.30;1.00;;;;;;4892319;29;20247;-39
2023/12/01 11:26:26;;;;;;;37.00;26.73;;;2.30;1.00;;;;;;4892608;29;20186;-39
2023/12/01 11:29:04;;;;;;;36.80;28.63;;;2.30;1.00;;;;;;4891609;29;20606;-40
2023/12/01 11:33:58;;;;;;;37.00;27.90;;;2.20;1.00;;;;;;4900924;29;20176;-54
2023/12/01 11:36:37;;;;;;;33.30;27.07;;;2.20;1.00;;;;;;4878909;29;20249;-54
2023/12/01 11:41:41;;;;;;;37.30;26.95;;;2.00;1.00;;;;;;4900408;29;20200;-56
2023/12/01 11:44:10;;;;;;;36.83;27.23;;;1.90;1.00;;;;;;4901746;29;20243;-51
2023/12/01 11:46:38;;;;;;;34.80;26.65;;;2.00;1.00;;;;;;4900106;29;20635;-51
2023/12/01 11:49:04;;;;;;;35.97;27.42;;;1.90;1.00;;;;;;4897135;29;20252;-52
2023/12/01 11:51:30;;;;;;;41.95;29.33;;;1.90;1.00;;;;;;4894270;29;20202;-53
2023/12/01 11:54:00;;;;;;;35.40;27.53;;;1.90;1.00;;;;;;4900312;29;20186;-51
2023/12/01 11:56:27;;;;;;;40.75;29.15;;;2.00;1.00;;;;;;4898846;29;20429;-54
2023/12/01 11:58:53;;;;;;;38.20;28.95;;;2.10;1.00;;;;;;4906131;29;20256;-49
2023/12/01 12:01:19;;;;;;;32.95;27.35;;;2.10;1.00;;;;;;4894162;29;20232;-50
2023/12/01 12:03:53;;;;;;;38.47;27.08;;;2.10;1.00;;;;;;4899433;29;20223;-53
2023/12/01 12:06:20;;;;;;;37.58;28.60;;;2.10;1.00;;;;;;4895150;29;20195;-53
2023/12/01 12:08:47;;;;;;;35.15;28.92;;;2.20;1.00;;;;;;4894749;29;20658;-55
2023/12/01 12:11:13;;;;;;;41.35;29.02;;;2.20;1.00;;;;;;4893333;29;20183;-55
2023/12/01 12:13:38;;;;;;;42.80;29.60;;;2.20;1.00;;;;;;4893033;29;20179;-53
2023/12/01 12:16:05;;;;;;;37.50;28.87;;;2.20;1.00;;;;;;4891814;29;20624;-52
2023/12/01 12:18:31;;;;;;;41.10;29.75;;;2.20;1.00;;;;;;4893620;29;20189;-56
2023/12/01 12:21:04;;;;;;;35.63;28.77;;;2.20;1.00;;;;;;4894983;29;20586;-55
2023/12/01 12:23:31;;;;;;;43.78;31.30;;;2.20;1.00;;;;;;4908647;29;20419;-53
2023/12/01 12:26:21;;;;;;;45.78;31.30;;;2.30;1.00;;;;;;4903652;29;20195;-51
2023/12/01 12:28:49;;;;;;;37.78;29.33;;;2.20;1.00;;;;;;4894287;29;20196;-54
2023/12/01 12:31:15;;;;;;;42.97;29.83;;;2.30;1.00;;;;;;4893215;29;20192;-53
2023/12/01 12:33:41;;;;;;;38.77;30.30;;;2.20;1.00;;;;;;4895281;29;20202;-41
2023/12/01 12:36:07;;;;;;;42.90;30.77;;;2.30;1.00;;;;;;4894117;29;20195;-40
2023/12/01 12:38:33;;;;;;;41.28;30.58;;;2.30;1.00;;;;;;4891040;29;20203;-41
2023/12/01 12:41:04;;;;;;;37.30;29.70;;;2.30;1.00;;;;;;4892953;29;20216;-40
2023/12/01 12:43:31;;;;;;;40.75;31.35;;;2.30;1.00;;;;;;4893974;29;20889;-39
2023/12/01 12:45:59;;;;;;;46.00;32.13;;;2.30;1.00;;;;;;4892096;29;20187;-39